createdAt,value
2023-08-11T00:01:46.955Z,2.55
2023-08-11T00:03:49.953Z,2.22
2023-08-11T00:05:54.633Z,2.20
2023-08-11T00:07:58.189Z,2.60
2023-08-11T00:10:00.889Z,2.33
2023-08-11T00:12:05.553Z,2.38
2023-08-11T00:14:08.303Z,2.58
2023-08-11T00:16:11.312Z,2.67
2023-08-11T00:18:14.089Z,3.33
2023-08-11T00:20:16.796Z,3.25
2023-08-11T00:22:19.422Z,3.20
2023-08-11T00:24:21.361Z,3.05
2023-08-11T00:26:24.076Z,3.00
2023-08-11T00:28:28.401Z,2.90
2023-08-11T00:30:30.362Z,2.92
2023-08-11T00:32:33.249Z,2.72
2023-08-11T00:34:36.509Z,2.60
2023-08-11T00:36:39.270Z,2.92
2023-08-11T00:38:42.025Z,2.85
2023-08-11T00:40:45.107Z,2.78
2023-08-11T00:42:50.567Z,2.90
2023-08-11T00:44:54.715Z,2.95
2023-08-11T00:46:57.974Z,2.88
2023-08-11T00:49:01.716Z,2.92
2023-08-11T00:51:06.608Z,3.03
2023-08-11T00:53:11.128Z,3.03
2023-08-11T00:55:14.912Z,3.30
2023-08-11T00:57:17.947Z,3.30
2023-08-11T00:59:20.690Z,3.30
2023-08-11T01:01:25.645Z,3.17
2023-08-11T01:03:28.498Z,3.30
2023-08-11T01:05:36.526Z,3.50
2023-08-11T01:07:43.932Z,3.08
2023-08-11T01:09:53.706Z,3.10
2023-08-11T01:12:07.659Z,2.90
2023-08-11T01:14:19.434Z,2.90
2023-08-11T01:16:25.830Z,3.00
2023-08-11T01:18:29.438Z,3.00
2023-08-11T01:20:32.455Z,3.42
2023-08-11T01:22:38.018Z,3.63
2023-08-11T01:24:43.588Z,3.35
2023-08-11T01:26:47.602Z,2.90
2023-08-11T01:28:54.681Z,3.78
2023-08-11T01:30:57.357Z,3.13
2023-08-11T01:33:00.166Z,3.58
2023-08-11T01:35:03.494Z,3.30
2023-08-11T01:37:05.793Z,3.28
2023-08-11T01:39:10.717Z,3.60
2023-08-11T01:41:15.650Z,3.47
2023-08-11T01:43:19.440Z,3.22
2023-08-11T01:45:23.306Z,3.50
2023-08-11T01:47:25.783Z,3.45
2023-08-11T01:49:29.335Z,3.30
2023-08-11T01:51:32.373Z,3.45
2023-08-11T01:53:35.450Z,3.72
2023-08-11T01:55:38.499Z,3.20
2023-08-11T01:57:51.995Z,3.40
2023-08-11T02:00:01.105Z,3.53
2023-08-11T02:02:04.206Z,3.10
2023-08-11T02:04:07.497Z,3.55
2023-08-11T02:06:09.497Z,3.45
2023-08-11T02:08:15.604Z,3.50
2023-08-11T02:10:18.257Z,3.58
2023-08-11T02:12:20.986Z,3.60
2023-08-11T02:14:25.081Z,3.40
2023-08-11T02:16:26.908Z,4.43
2023-08-11T02:18:29.826Z,3.88
2023-08-11T02:20:34.108Z,3.42
2023-08-11T02:22:36.937Z,3.72
2023-08-11T02:24:39.712Z,4.03
2023-08-11T02:26:42.449Z,4.35
2023-08-11T02:28:45.246Z,4.55
2023-08-11T02:30:49.348Z,4.10
2023-08-11T02:32:52.245Z,3.90
2023-08-11T02:34:55.841Z,4.65
2023-08-11T02:36:58.540Z,4.30
2023-08-11T02:39:01.436Z,3.70
2023-08-11T02:41:05.470Z,3.40
2023-08-11T02:43:08.330Z,3.40
2023-08-11T02:45:12.434Z,3.60
2023-08-11T02:47:16.665Z,3.50
2023-08-11T02:49:19.437Z,3.38
2023-08-11T02:51:21.302Z,3.72
2023-08-11T02:53:24.804Z,3.67
2023-08-11T02:55:27.524Z,3.75
2023-08-11T02:57:30.305Z,3.75
2023-08-11T02:59:33.237Z,3.90
2023-08-11T03:01:36.043Z,3.75
2023-08-11T03:03:40.911Z,4.30
2023-08-11T03:05:44.862Z,3.25
2023-08-11T03:07:47.599Z,3.35
2023-08-11T03:09:50.322Z,3.53
2023-08-11T03:11:53.103Z,3.85
2023-08-11T03:13:55.305Z,3.80
2023-08-11T03:15:59.976Z,3.65
2023-08-11T03:18:02.901Z,4.18
2023-08-11T03:20:13.638Z,3.80
2023-08-11T03:22:18.709Z,3.92
2023-08-11T03:24:21.554Z,4.40
2023-08-11T03:26:24.289Z,4.07
2023-08-11T03:28:27.002Z,4.13
2023-08-11T03:30:29.853Z,4.30
2023-08-11T03:32:32.599Z,3.78
2023-08-11T03:34:35.466Z,3.80
2023-08-11T03:36:39.446Z,4.10
2023-08-11T03:38:42.193Z,4.72
2023-08-11T03:40:44.928Z,3.42
2023-08-11T03:42:47.659Z,3.97
2023-08-11T03:44:50.520Z,4.22
2023-08-11T03:46:53.260Z,4.65
2023-08-11T03:48:55.973Z,4.18
2023-08-11T03:51:01.057Z,3.95
2023-08-11T03:53:05.380Z,4.57
2023-08-11T03:55:10.664Z,4.20
2023-08-11T03:57:14.136Z,3.70
2023-08-11T03:59:16.823Z,4.50
2023-08-11T04:01:19.547Z,4.57
2023-08-11T04:03:23.351Z,3.90
2023-08-11T04:05:26.348Z,3.88
2023-08-11T04:07:29.470Z,4.70
2023-08-11T04:09:35.276Z,4.40
2023-08-11T04:11:38.064Z,3.92
2023-08-11T04:13:40.880Z,4.10
2023-08-11T04:15:43.763Z,3.75
2023-08-11T04:17:46.453Z,4.10
2023-08-11T04:19:49.708Z,4.20
2023-08-11T04:21:52.449Z,3.60
2023-08-11T04:23:57.397Z,4.03
2023-08-11T04:26:03.213Z,4.00
2023-08-11T04:28:05.199Z,3.97
2023-08-11T04:30:09.549Z,3.63
2023-08-11T04:32:12.427Z,3.55
2023-08-11T04:34:16.578Z,3.92
2023-08-11T04:36:19.219Z,3.85
2023-08-11T04:38:21.240Z,3.40
2023-08-11T04:40:24.473Z,3.67
2023-08-11T04:42:28.781Z,3.45
2023-08-11T04:44:31.502Z,3.75
2023-08-11T04:46:34.249Z,3.30
2023-08-11T04:48:36.969Z,3.83
2023-08-11T04:50:39.739Z,3.30
2023-08-11T04:52:43.894Z,3.83
2023-08-11T04:54:48.856Z,3.60
2023-08-11T04:56:51.790Z,4.00
2023-08-11T04:58:56.167Z,3.85
2023-08-11T05:00:58.840Z,3.70
2023-08-11T05:03:01.560Z,4.75
2023-08-11T05:05:06.700Z,4.10
2023-08-11T05:07:10.278Z,4.32
2023-08-11T05:09:14.878Z,3.72
2023-08-11T05:11:19.418Z,4.40
2023-08-11T05:13:22.852Z,3.95
2023-08-11T05:15:27.053Z,4.00
2023-08-11T05:17:29.946Z,4.38
2023-08-11T05:19:32.829Z,3.90
2023-08-11T05:21:37.436Z,4.15
2023-08-11T05:23:40.158Z,4.13
2023-08-11T05:25:42.909Z,3.55
2023-08-11T05:27:46.363Z,4.00
2023-08-11T05:29:50.614Z,3.78
2023-08-11T05:31:54.778Z,3.88
2023-08-11T05:33:58.129Z,4.00
2023-08-11T05:36:01.011Z,3.72
2023-08-11T05:38:03.876Z,4.07
2023-08-11T05:40:09.708Z,4.00
2023-08-11T05:42:12.619Z,4.40
2023-08-11T05:44:14.428Z,3.42
2023-08-11T05:46:17.171Z,3.97
2023-08-11T05:48:21.273Z,3.35
2023-08-11T05:50:24.064Z,3.60
2023-08-11T05:52:26.807Z,3.65
2023-08-11T05:54:29.496Z,4.20
2023-08-11T05:56:32.177Z,4.22
2023-08-11T05:58:35.008Z,3.65
2023-08-11T06:00:37.743Z,3.90
2023-08-11T06:02:40.646Z,3.90
2023-08-11T06:04:45.843Z,4.10
2023-08-11T06:06:48.517Z,3.78
2023-08-11T06:08:51.336Z,3.55
2023-08-11T06:10:55.649Z,3.17
2023-08-11T06:12:58.458Z,3.28
2023-08-11T06:15:01.108Z,3.25
2023-08-11T06:17:04.272Z,3.30
2023-08-11T06:19:07.420Z,3.42
2023-08-11T06:21:12.182Z,3.53
2023-08-11T06:23:14.959Z,3.10
2023-08-11T06:25:17.768Z,3.47
2023-08-11T06:27:20.463Z,3.40
2023-08-11T06:29:23.162Z,3.45
2023-08-11T06:31:26.062Z,3.45
2023-08-11T06:33:28.823Z,3.28
2023-08-11T06:35:30.858Z,3.00
2023-08-11T06:37:34.925Z,3.53
2023-08-11T06:39:37.839Z,2.97
2023-08-11T06:41:40.619Z,3.38
2023-08-11T06:43:43.758Z,3.38
2023-08-11T06:45:46.854Z,3.40
2023-08-11T06:47:49.729Z,2.80
2023-08-11T06:49:52.442Z,3.25
2023-08-11T06:51:55.134Z,3.10
2023-08-11T06:53:59.336Z,3.42
2023-08-11T06:56:02.080Z,3.10
2023-08-11T06:58:04.370Z,3.50
2023-08-11T07:00:08.459Z,3.63
2023-08-11T07:02:11.345Z,3.38
2023-08-11T07:04:14.098Z,3.40
2023-08-11T07:06:17.039Z,3.38
2023-08-11T07:08:19.832Z,3.08
2023-08-11T07:10:23.909Z,3.00
2023-08-11T07:12:25.673Z,3.35
2023-08-11T07:14:28.485Z,3.30
2023-08-11T07:16:31.311Z,2.97
2023-08-11T07:18:33.102Z,3.28
2023-08-11T07:20:35.811Z,3.67
2023-08-11T07:22:38.491Z,3.20
2023-08-11T07:24:40.245Z,3.10
2023-08-11T07:26:44.352Z,2.95
2023-08-11T07:28:47.674Z,2.67
2023-08-11T07:30:50.411Z,3.20
2023-08-11T07:32:55.370Z,3.15
2023-08-11T07:34:58.531Z,2.72
2023-08-11T07:37:01.217Z,2.67
2023-08-11T07:39:20.740Z,2.90
2023-08-11T07:41:25.311Z,3.00
2023-08-11T07:43:29.410Z,3.00
2023-08-11T07:45:34.106Z,2.60
2023-08-11T07:47:36.939Z,2.90
2023-08-11T07:49:39.736Z,2.50
2023-08-11T07:51:42.761Z,2.53
2023-08-11T07:53:46.437Z,3.00
2023-08-11T07:55:49.237Z,2.95
2023-08-11T07:57:51.930Z,2.67
2023-08-11T07:59:56.010Z,2.78
2023-08-11T08:01:57.762Z,2.40
2023-08-11T08:04:00.567Z,2.67
2023-08-11T08:06:06.110Z,2.85
2023-08-11T08:08:09.105Z,2.90
2023-08-11T08:10:14.968Z,2.50
2023-08-11T08:14:21.012Z,2.58
2023-08-11T08:16:25.146Z,2.80
2023-08-11T08:18:27.855Z,2.85
2023-08-11T08:20:32.345Z,3.03
2023-08-11T08:22:35.424Z,2.63
2023-08-11T08:24:38.173Z,3.05
2023-08-11T08:26:40.911Z,2.60
2023-08-11T08:28:43.547Z,2.55
2023-08-11T08:30:46.328Z,2.60
2023-08-11T08:32:50.447Z,2.80
2023-08-11T08:34:53.487Z,2.55
2023-08-11T08:36:56.274Z,2.75
2023-08-11T08:38:59.057Z,2.85
2023-08-11T08:41:02.264Z,2.75
2023-08-11T08:43:05.815Z,2.53
2023-08-11T08:45:10.224Z,2.50
2023-08-11T08:47:14.863Z,2.55
2023-08-11T08:49:24.354Z,2.45
2023-08-11T08:51:27.707Z,2.72
2023-08-11T08:53:30.629Z,2.78
2023-08-11T08:55:33.541Z,2.70
2023-08-11T08:57:36.249Z,2.70
2023-08-11T08:59:39.761Z,2.50
2023-08-11T09:01:43.230Z,2.65
2023-08-11T09:03:47.783Z,2.42
2023-08-11T09:05:52.304Z,2.50
2023-08-11T09:07:55.077Z,2.75
2023-08-11T09:09:57.792Z,3.20
2023-08-11T09:12:02.229Z,2.72
2023-08-11T09:14:05.784Z,2.53
2023-08-11T09:16:08.545Z,2.30
2023-08-11T09:18:16.964Z,2.30
2023-08-11T09:20:20.740Z,2.55
2023-08-11T09:22:26.239Z,2.50
2023-08-11T09:24:31.437Z,2.80
2023-08-11T09:26:34.108Z,2.47
2023-08-11T09:28:36.961Z,2.65
2023-08-11T09:30:40.143Z,2.78
2023-08-11T09:32:42.895Z,2.80
2023-08-11T09:34:46.099Z,2.70
2023-08-11T09:36:50.805Z,2.75
2023-08-11T09:38:54.862Z,2.60
2023-08-11T09:41:01.888Z,2.47
2023-08-11T09:43:04.863Z,2.70
2023-08-11T09:45:09.824Z,2.95
2023-08-11T09:47:21.219Z,2.70
2023-08-11T09:49:25.125Z,2.60
2023-08-11T09:51:27.012Z,2.58
2023-08-11T09:53:31.222Z,2.85
2023-08-11T09:55:39.364Z,3.03
2023-08-11T09:57:43.305Z,2.50
2023-08-11T09:59:47.416Z,2.50
2023-08-11T10:01:53.392Z,2.75
2023-08-11T10:03:59.279Z,2.75
2023-08-11T10:12:18.269Z,2.60
2023-08-11T10:14:22.921Z,2.97
2023-08-11T10:16:28.895Z,3.15
2023-08-11T10:18:33.595Z,2.20
2023-08-11T10:20:36.566Z,2.92
2023-08-11T10:22:39.732Z,2.92
2023-08-11T10:24:44.605Z,2.67
2023-08-11T10:26:47.665Z,2.63
2023-08-11T10:28:52.441Z,2.78
2023-08-11T10:30:58.704Z,2.63
2023-08-11T10:33:06.787Z,2.88
2023-08-11T10:35:18.883Z,2.72
2023-08-11T10:37:25.961Z,2.63
2023-08-11T10:39:28.786Z,2.80
2023-08-11T10:41:31.947Z,2.92
2023-08-11T10:43:36.414Z,2.50
2023-08-11T10:45:42.563Z,3.00
2023-08-11T10:47:52.917Z,3.10
2023-08-11T10:49:56.820Z,2.65
2023-08-11T10:52:00.987Z,2.70
2023-08-11T10:54:10.295Z,2.58
2023-08-11T10:56:14.577Z,2.90
2023-08-11T10:58:21.632Z,2.92
2023-08-11T11:00:24.311Z,2.58
2023-08-11T11:02:28.403Z,2.63
2023-08-11T11:04:33.201Z,2.70
2023-08-11T11:06:35.991Z,2.90
2023-08-11T11:08:38.710Z,3.00
2023-08-11T11:10:50.044Z,2.83
2023-08-11T11:12:53.690Z,2.72
2023-08-11T11:14:56.558Z,2.90
2023-08-11T11:17:00.444Z,2.70
2023-08-11T11:19:06.986Z,2.80
2023-08-11T11:21:09.814Z,2.80
2023-08-11T11:23:12.525Z,3.13
2023-08-11T11:25:15.261Z,3.03
2023-08-11T11:27:18.003Z,2.80
2023-08-11T11:29:24.629Z,2.80
2023-08-11T11:31:29.190Z,2.90
2023-08-11T11:33:31.554Z,3.00
2023-08-11T11:35:35.652Z,2.92
2023-08-11T11:37:38.730Z,2.92
2023-08-11T11:39:40.899Z,3.22
2023-08-11T11:41:43.583Z,3.25
2023-08-11T11:43:48.442Z,2.97
2023-08-11T11:45:53.517Z,2.90
2023-08-11T11:47:56.650Z,3.30
2023-08-11T11:50:00.409Z,3.05
2023-08-11T11:52:04.921Z,3.15
2023-08-11T11:54:07.656Z,3.00
2023-08-11T11:56:14.162Z,2.92
2023-08-11T11:58:17.129Z,3.20
2023-08-11T12:00:21.640Z,2.80
2023-08-11T12:02:24.379Z,3.05
2023-08-11T12:04:27.405Z,3.03
2023-08-11T12:06:31.148Z,2.80
2023-08-11T12:08:35.909Z,3.08
2023-08-11T12:10:38.605Z,3.00
2023-08-11T12:12:41.321Z,3.15
2023-08-11T12:14:44.050Z,3.22
2023-08-11T12:16:46.798Z,3.08
2023-08-11T12:18:49.723Z,2.78
2023-08-11T12:20:52.589Z,2.67
2023-08-11T12:22:55.336Z,2.83
2023-08-11T12:24:59.392Z,3.00
2023-08-11T12:27:02.243Z,2.60
2023-08-11T12:29:06.367Z,2.70
2023-08-11T12:31:11.652Z,2.78
2023-08-11T12:33:17.266Z,2.97
2023-08-11T12:35:20.029Z,2.88
2023-08-11T12:37:22.749Z,2.65
2023-08-11T12:39:25.575Z,2.75
2023-08-11T12:41:29.691Z,2.83
2023-08-11T12:43:32.415Z,2.80
2023-08-11T12:45:35.091Z,3.08
2023-08-11T12:47:37.833Z,2.38
2023-08-11T12:49:40.564Z,2.33
2023-08-11T12:51:43.279Z,2.60
2023-08-11T12:53:46.090Z,2.70
2023-08-11T12:55:48.850Z,2.80
2023-08-11T12:57:52.228Z,2.50
2023-08-11T12:59:54.885Z,2.85
2023-08-11T13:01:57.674Z,2.92
2023-08-11T13:04:02.633Z,2.80
2023-08-11T13:06:05.409Z,2.95
2023-08-11T13:08:08.532Z,2.83
2023-08-11T13:10:11.815Z,2.55
2023-08-11T13:12:14.501Z,2.78
2023-08-11T13:14:18.540Z,2.60
2023-08-11T13:16:21.332Z,3.13
2023-08-11T13:18:24.085Z,2.90
2023-08-11T13:20:26.952Z,2.83
2023-08-11T13:22:29.666Z,2.92
2023-08-11T13:24:33.081Z,2.97
2023-08-11T13:26:35.771Z,3.03
2023-08-11T13:28:38.486Z,3.17
2023-08-11T13:30:43.664Z,2.75
2023-08-11T13:32:46.518Z,2.60
2023-08-11T13:34:49.349Z,2.90
2023-08-11T13:36:52.203Z,2.92
2023-08-11T13:38:53.906Z,2.88
2023-08-11T13:40:57.497Z,3.10
2023-08-11T13:43:00.245Z,2.60
2023-08-11T13:45:02.964Z,2.95
2023-08-11T13:47:07.282Z,2.80
2023-08-11T13:49:10.766Z,3.00
2023-08-11T13:51:13.447Z,2.75
2023-08-11T13:53:16.541Z,2.80
2023-08-11T13:55:19.450Z,3.00
2023-08-11T13:57:22.110Z,2.65
2023-08-11T13:59:24.868Z,3.10
2023-08-11T14:01:27.592Z,2.78
2023-08-11T14:03:31.651Z,2.95
2023-08-11T14:05:35.700Z,3.05
2023-08-11T14:07:38.416Z,2.97
2023-08-11T14:09:41.169Z,5.80
2023-08-11T14:11:43.927Z,3.40
2023-08-11T14:13:46.633Z,2.88
2023-08-11T14:15:49.481Z,2.90
2023-08-11T14:17:52.258Z,2.97
2023-08-11T14:19:56.296Z,2.72
2023-08-11T14:21:58.969Z,2.85
2023-08-11T14:24:01.647Z,2.90
2023-08-11T14:26:04.422Z,2.92
2023-08-11T14:28:07.310Z,3.05
2023-08-11T14:30:10.850Z,2.60
2023-08-11T14:32:23.047Z,3.03
2023-08-11T14:34:27.851Z,2.80
2023-08-11T14:36:32.124Z,3.13
2023-08-11T14:38:34.806Z,2.78
2023-08-11T14:40:37.507Z,3.00
2023-08-11T14:42:41.343Z,2.97
2023-08-11T14:44:44.438Z,2.90
2023-08-11T14:46:47.186Z,2.80
2023-08-11T14:48:49.914Z,3.00
2023-08-11T14:50:52.940Z,3.20
2023-08-11T14:52:57.045Z,2.70
2023-08-11T14:54:59.771Z,2.97
2023-08-11T14:57:02.540Z,2.65
2023-08-11T14:59:05.422Z,2.83
2023-08-11T15:01:08.321Z,2.95
2023-08-11T15:03:11.134Z,2.70
2023-08-11T15:05:14.020Z,2.50
2023-08-11T15:07:16.922Z,2.67
2023-08-11T15:09:21.033Z,2.78
2023-08-11T15:11:23.781Z,3.25
2023-08-11T15:13:26.521Z,2.72
2023-08-11T15:15:29.393Z,2.65
2023-08-11T15:17:32.158Z,3.13
2023-08-11T15:19:34.879Z,2.53
2023-08-11T15:21:37.583Z,2.92
2023-08-11T15:23:40.572Z,3.25
2023-08-11T15:25:44.644Z,2.60
2023-08-11T15:27:47.349Z,2.80
2023-08-11T15:29:50.033Z,2.90
2023-08-11T15:31:54.606Z,3.13
2023-08-11T15:33:57.675Z,2.80
2023-08-11T15:36:00.468Z,2.90
2023-08-11T15:38:03.124Z,2.60
2023-08-11T15:40:07.149Z,2.78
2023-08-11T15:42:11.474Z,2.75
2023-08-11T15:44:14.386Z,2.78
2023-08-11T15:46:17.166Z,2.72
2023-08-11T15:48:19.923Z,2.67
2023-08-11T15:50:22.681Z,2.97
2023-08-11T15:52:25.456Z,2.63
2023-08-11T15:54:27.170Z,2.50
2023-08-11T15:56:29.912Z,2.50
2023-08-11T15:58:33.933Z,3.30
2023-08-11T16:00:38.629Z,2.90
2023-08-11T16:02:40.718Z,2.42
2023-08-11T16:04:43.531Z,2.92
2023-08-11T16:06:46.288Z,2.70
2023-08-11T16:08:48.986Z,2.47
2023-08-11T16:10:51.681Z,2.50
2023-08-11T16:12:54.507Z,2.60
2023-08-11T16:14:58.659Z,2.72
2023-08-11T16:17:01.401Z,2.58
2023-08-11T16:19:04.135Z,2.67
2023-08-11T16:21:06.905Z,2.83
2023-08-11T16:23:09.640Z,2.60
2023-08-11T16:25:12.424Z,2.67
2023-08-11T16:27:15.099Z,2.55
2023-08-11T16:29:17.861Z,2.42
2023-08-11T16:31:21.980Z,2.47
2023-08-11T16:33:24.705Z,2.80
2023-08-11T16:35:27.545Z,2.45
2023-08-11T16:37:31.064Z,3.42
2023-08-11T16:39:33.819Z,2.35
2023-08-11T16:41:36.539Z,2.60
2023-08-11T16:43:39.191Z,2.55
2023-08-11T16:45:40.916Z,2.92
2023-08-11T16:47:44.968Z,2.33
2023-08-11T16:49:47.639Z,2.60
2023-08-11T16:51:50.368Z,2.60
2023-08-11T16:53:53.049Z,2.60
2023-08-11T16:55:55.761Z,2.50
2023-08-11T16:57:58.486Z,2.45
2023-08-11T17:00:01.264Z,2.20
2023-08-11T17:02:03.951Z,2.67
2023-08-11T17:04:08.485Z,2.40
2023-08-11T17:06:14.114Z,2.58
2023-08-11T17:08:16.802Z,2.30
2023-08-11T17:10:19.555Z,2.50
2023-08-11T17:12:22.315Z,2.75
2023-08-11T17:14:25.088Z,2.60
2023-08-11T17:16:30.053Z,2.63
2023-08-11T17:18:31.875Z,2.47
2023-08-11T17:20:37.034Z,2.35
2023-08-11T17:22:39.698Z,2.67
2023-08-11T17:24:42.644Z,2.53
2023-08-11T17:26:45.368Z,2.80
2023-08-11T17:28:48.964Z,2.47
2023-08-11T17:30:50.744Z,3.00
2023-08-11T17:32:53.424Z,2.30
2023-08-11T17:34:58.606Z,2.80
2023-08-11T17:37:03.355Z,2.55
2023-08-11T17:39:07.337Z,2.40
2023-08-11T17:41:10.604Z,2.63
2023-08-11T17:43:13.304Z,2.65
2023-08-11T17:45:16.036Z,2.55
2023-08-11T17:47:18.733Z,2.40
2023-08-11T17:49:21.393Z,2.30
2023-08-11T17:51:24.314Z,3.00
2023-08-11T17:53:28.379Z,2.25
2023-08-11T17:55:31.134Z,2.40
2023-08-11T17:57:33.860Z,2.58
2023-08-11T17:59:36.768Z,2.65
2023-08-11T18:01:39.896Z,2.50
2023-08-11T18:03:41.649Z,3.05
2023-08-11T18:05:44.709Z,2.67
2023-08-11T18:07:47.488Z,2.80
2023-08-11T18:09:52.113Z,2.88
2023-08-11T18:11:54.804Z,2.83
2023-08-11T18:13:57.862Z,2.90
2023-08-11T18:16:00.557Z,2.72
2023-08-11T18:18:03.276Z,2.55
2023-08-11T18:20:07.586Z,2.63
2023-08-11T18:22:10.464Z,2.72
2023-08-11T18:24:13.269Z,2.72
2023-08-11T18:26:18.063Z,2.70
2023-08-11T18:28:20.808Z,3.13
2023-08-11T18:30:23.674Z,2.67
2023-08-11T18:32:26.430Z,3.05
2023-08-11T18:34:29.154Z,2.88
2023-08-11T18:36:31.859Z,2.80
2023-08-11T18:38:33.691Z,2.80
2023-08-11T18:40:36.428Z,2.80
2023-08-11T18:42:40.440Z,2.90
2023-08-11T18:44:43.317Z,2.58
2023-08-11T18:46:46.115Z,2.78
2023-08-11T18:48:49.796Z,2.88
2023-08-11T18:50:53.176Z,2.50
2023-08-11T18:52:55.895Z,2.78
2023-08-11T18:54:58.588Z,2.60
2023-08-11T18:57:01.294Z,2.85
2023-08-11T18:59:05.361Z,2.63
2023-08-11T19:01:08.145Z,2.78
2023-08-11T19:03:10.977Z,3.28
2023-08-11T19:05:13.790Z,3.10
2023-08-11T19:07:15.508Z,2.70
2023-08-11T19:09:18.245Z,2.90
2023-08-11T19:11:23.574Z,2.90
2023-08-11T19:13:26.292Z,3.33
2023-08-11T19:15:30.579Z,2.70
2023-08-11T19:17:33.273Z,2.72
2023-08-11T19:19:36.016Z,2.75
2023-08-11T19:21:38.825Z,3.13
2023-08-11T19:23:41.502Z,3.25
2023-08-11T19:25:44.394Z,3.08
2023-08-11T19:27:47.057Z,2.58
2023-08-11T19:29:50.482Z,2.80
2023-08-11T19:31:54.553Z,2.70
2023-08-11T19:33:57.293Z,2.53
2023-08-11T19:36:00.793Z,2.90
2023-08-11T19:38:04.821Z,2.47
2023-08-11T19:40:08.689Z,2.50
2023-08-11T19:42:11.665Z,2.50
2023-08-11T19:44:15.980Z,2.88
2023-08-11T19:46:18.663Z,2.50
2023-08-11T19:48:22.775Z,2.55
2023-08-11T19:50:25.516Z,3.05
2023-08-11T19:52:28.253Z,2.20
2023-08-11T19:54:30.931Z,2.65
2023-08-11T19:56:33.713Z,2.92
2023-08-11T19:58:36.382Z,2.70
2023-08-11T20:00:39.091Z,2.53
2023-08-11T20:02:42.074Z,2.72
2023-08-11T20:04:46.181Z,2.47
2023-08-11T20:06:49.028Z,2.88
2023-08-11T20:08:51.840Z,2.90
2023-08-11T20:10:54.905Z,2.58
2023-08-11T20:12:57.585Z,2.70
2023-08-11T20:15:00.250Z,2.85
2023-08-11T20:17:04.589Z,2.70
2023-08-11T20:19:07.452Z,2.63
2023-08-11T20:21:11.532Z,2.42
2023-08-11T20:23:14.297Z,2.97
2023-08-11T20:25:17.126Z,2.85
2023-08-11T20:27:22.744Z,2.90
2023-08-11T20:29:26.124Z,3.13
2023-08-11T20:31:32.589Z,2.70
2023-08-11T20:33:35.579Z,2.50
2023-08-11T20:35:38.276Z,2.40
2023-08-11T20:37:42.367Z,2.75
2023-08-11T20:39:45.047Z,2.90
2023-08-11T20:41:47.766Z,2.75
2023-08-11T20:43:49.772Z,2.90
2023-08-11T20:45:53.075Z,3.10
2023-08-11T20:47:55.976Z,2.53
2023-08-11T20:49:58.914Z,2.90
2023-08-11T20:52:01.914Z,2.45
2023-08-11T20:54:06.453Z,2.45
2023-08-11T20:56:10.722Z,2.65
2023-08-11T20:58:12.492Z,2.40
2023-08-11T21:00:16.341Z,2.38
2023-08-11T21:02:19.173Z,2.58
2023-08-11T21:04:22.050Z,2.63
2023-08-11T21:06:24.873Z,2.83
2023-08-11T21:08:27.641Z,2.58
2023-08-11T21:10:31.728Z,2.60
2023-08-11T21:12:34.617Z,2.60
2023-08-11T21:14:37.370Z,2.47
2023-08-11T21:16:40.824Z,2.63
2023-08-11T21:18:43.766Z,3.00
2023-08-11T21:20:46.623Z,2.65
2023-08-11T21:22:49.304Z,2.60
2023-08-11T21:24:52.085Z,2.40
2023-08-11T21:26:56.249Z,2.60
2023-08-11T21:28:59.023Z,2.50
2023-08-11T21:31:16.947Z,2.42
2023-08-11T21:33:21.134Z,2.38
2023-08-11T21:35:23.656Z,2.45
2023-08-11T21:37:26.291Z,2.28
2023-08-11T21:39:29.061Z,2.40
2023-08-11T21:41:32.524Z,2.67
2023-08-11T21:43:36.597Z,2.53
2023-08-11T21:45:39.952Z,2.20
2023-08-11T21:47:42.708Z,2.53
2023-08-11T21:49:45.471Z,2.55
2023-08-11T21:51:48.132Z,2.25
2023-08-11T21:53:50.950Z,2.30
2023-08-11T21:55:53.667Z,2.38
2023-08-11T21:57:58.102Z,2.53
2023-08-11T22:00:02.510Z,2.47
2023-08-11T22:02:04.508Z,2.67
2023-08-11T22:04:07.740Z,2.40
2023-08-11T22:06:13.722Z,2.67
2023-08-11T22:08:16.426Z,2.53
2023-08-11T22:10:19.247Z,2.80
2023-08-11T22:12:21.919Z,2.70
2023-08-11T22:14:24.686Z,2.60
2023-08-11T22:16:27.878Z,2.83
2023-08-11T22:18:30.629Z,2.72
2023-08-11T22:20:34.312Z,2.83
2023-08-11T22:22:36.985Z,2.78
2023-08-11T22:24:41.522Z,2.30
2023-08-11T22:26:43.715Z,2.58
2023-08-11T22:28:46.467Z,2.90
2023-08-11T22:30:51.184Z,2.70
2023-08-11T22:32:55.357Z,2.80
2023-08-11T22:34:58.191Z,2.40
2023-08-11T22:37:00.889Z,2.28
2023-08-11T22:39:04.355Z,2.70
2023-08-11T22:41:07.059Z,2.47
2023-08-11T22:43:09.730Z,3.30
2023-08-11T22:45:11.503Z,2.90
2023-08-11T22:47:14.526Z,2.83
2023-08-11T22:49:18.675Z,2.60
2023-08-11T22:51:21.713Z,2.72
2023-08-11T22:53:23.502Z,2.75
2023-08-11T22:55:26.230Z,2.83
2023-08-11T22:57:28.876Z,2.70
2023-08-11T22:59:31.580Z,2.92
2023-08-11T23:01:34.333Z,2.90
2023-08-11T23:03:37.042Z,3.65
2023-08-11T23:05:41.087Z,3.42
2023-08-11T23:07:43.761Z,3.42
2023-08-11T23:09:46.775Z,2.83
2023-08-11T23:11:49.489Z,2.88
2023-08-11T23:13:52.162Z,2.60
2023-08-11T23:15:55.099Z,2.95
2023-08-11T23:17:58.688Z,2.70
2023-08-11T23:20:01.897Z,2.88
2023-08-11T23:22:06.046Z,2.78
2023-08-11T23:24:09.942Z,2.90
2023-08-11T23:26:11.701Z,3.03
2023-08-11T23:28:14.424Z,2.63
2023-08-11T23:30:17.196Z,2.63
2023-08-11T23:32:19.974Z,2.70
2023-08-11T23:34:22.983Z,3.35
2023-08-11T23:36:26.734Z,3.08
2023-08-11T23:38:30.824Z,2.95
2023-08-11T23:40:33.674Z,2.60
2023-08-11T23:42:36.446Z,2.80
2023-08-11T23:44:39.149Z,3.20
2023-08-11T23:46:41.822Z,2.53
2023-08-11T23:48:44.732Z,3.00
2023-08-11T23:50:47.522Z,2.88
2023-08-11T23:52:50.854Z,2.92
2023-08-11T23:54:54.030Z,3.28
2023-08-11T23:56:56.818Z,2.83
2023-08-11T23:58:59.492Z,3.30
